createdAt,value
2019-04-04T00:00:02.426Z,97843.02
2019-04-04T00:02:30.657Z,97829.69
2019-04-04T00:04:59.183Z,97846.81
2019-04-04T00:07:29.177Z,97846.77
2019-04-04T00:09:57.637Z,97845.45
2019-04-04T00:12:25.871Z,97837.77
2019-04-04T00:14:54.100Z,97824.47
2019-04-04T00:17:23.225Z,97816.42
2019-04-04T00:19:52.116Z,97825.42
2019-04-04T00:22:20.591Z,97818.17
2019-04-04T00:24:48.887Z,97821.23
2019-04-04T00:27:17.341Z,97818.22
2019-04-04T00:29:46.055Z,97832.25
2019-04-04T00:32:15.527Z,97832.30
2019-04-04T00:34:43.752Z,97830.59
2019-04-04T00:37:12.218Z,97826.81
2019-04-04T00:39:40.572Z,97835.66
2019-04-04T00:42:08.786Z,97831.38
2019-04-04T00:44:37.011Z,97846.31
2019-04-04T00:47:05.249Z,97833.94
2019-04-04T00:49:35.407Z,97829.67
2019-04-04T00:52:03.663Z,97835.34
2019-04-04T00:54:31.886Z,97832.83
2019-04-04T00:57:00.129Z,97825.06
2019-04-04T00:59:28.577Z,97821.08
2019-04-04T01:01:57.621Z,97820.21
2019-04-04T01:04:26.078Z,97816.79
2019-04-04T01:06:54.528Z,97812.91
2019-04-04T01:09:22.763Z,97820.17
2019-04-04T01:11:51.878Z,97816.74
2019-04-04T01:14:20.127Z,97824.32
2019-04-04T01:16:48.560Z,97826.33
2019-04-04T01:19:16.800Z,97822.95
2019-04-04T01:21:45.032Z,97808.84
2019-04-04T01:24:13.270Z,97805.87
2019-04-04T01:26:41.720Z,97804.13
2019-04-04T01:29:10.918Z,97823.26
2019-04-04T01:31:39.580Z,97815.91
2019-04-04T01:34:07.810Z,97805.99
2019-04-04T01:36:36.040Z,97799.05
2019-04-04T01:39:06.319Z,97803.25
2019-04-04T01:41:36.406Z,97788.31
2019-04-04T01:44:05.619Z,97768.59
2019-04-04T01:46:33.795Z,97741.16
2019-04-04T01:49:03.071Z,97748.78
2019-04-04T01:51:31.295Z,97747.45
2019-04-04T01:54:00.996Z,97757.20
2019-04-04T01:56:29.765Z,97760.08
2019-04-04T01:58:57.994Z,97754.51
2019-04-04T02:01:26.223Z,97742.96
2019-04-04T02:03:54.448Z,97738.53
2019-04-04T02:06:22.905Z,97740.11
2019-04-04T02:08:51.372Z,97729.75
2019-04-04T02:11:19.592Z,97727.56
2019-04-04T02:13:47.819Z,97721.53
2019-04-04T02:16:16.930Z,97709.95
2019-04-04T02:18:45.655Z,97715.45
2019-04-04T02:21:13.897Z,97723.88
2019-04-04T02:23:42.112Z,97721.59
2019-04-04T02:26:10.569Z,97738.55
2019-04-04T02:28:40.048Z,97748.31
2019-04-04T02:31:09.188Z,97753.83
2019-04-04T02:33:37.407Z,97774.31
2019-04-04T02:36:05.636Z,97763.69
2019-04-04T02:38:34.093Z,97736.61
2019-04-04T02:41:02.334Z,97727.81
2019-04-04T02:43:30.558Z,97728.28
2019-04-04T02:45:58.789Z,97730.06
2019-04-04T02:48:27.019Z,97728.79
2019-04-04T02:50:55.239Z,97724.23
2019-04-04T02:53:23.464Z,97714.16
2019-04-04T02:55:51.746Z,97690.58
2019-04-04T02:58:20.192Z,97669.41
2019-04-04T03:00:48.406Z,97678.25
2019-04-04T03:03:16.628Z,97672.69
2019-04-04T03:05:44.863Z,97673.78
2019-04-04T03:08:13.085Z,97691.27
2019-04-04T03:10:41.392Z,97693.77
2019-04-04T03:13:09.619Z,97698.82
2019-04-04T03:15:41.330Z,97706.89
2019-04-04T03:18:08.017Z,97700.92
2019-04-04T03:20:36.256Z,97701.83
2019-04-04T03:23:04.468Z,97701.83
2019-04-04T03:25:32.706Z,97700.14
2019-04-04T03:28:01.152Z,97709.97
2019-04-04T03:30:29.382Z,97707.87
2019-04-04T03:32:57.846Z,97707.46
2019-04-04T03:35:28.425Z,97703.22
2019-04-04T03:37:56.029Z,97703.72
2019-04-04T03:40:25.675Z,97695.73
2019-04-04T03:42:54.056Z,97698.33
2019-04-04T03:45:25.994Z,97702.62
2019-04-04T03:47:52.452Z,97699.61
2019-04-04T03:50:20.685Z,97713.12
2019-04-04T03:52:48.926Z,97700.25
2019-04-04T03:55:17.368Z,97692.58
2019-04-04T03:57:45.841Z,97686.97
2019-04-04T04:00:17.460Z,97681.85
2019-04-04T04:02:49.765Z,97678.02
2019-04-04T04:05:33.751Z,97663.56
2019-04-04T04:07:59.728Z,97644.99
2019-04-04T04:10:32.246Z,97621.58
2019-04-04T04:12:57.900Z,97616.39
2019-04-04T04:15:29.286Z,97608.63
2019-04-04T04:17:56.297Z,97593.20
2019-04-04T04:20:24.759Z,97597.31
2019-04-04T04:22:52.980Z,97614.56
2019-04-04T04:25:21.495Z,97622.91
2019-04-04T04:27:50.817Z,97650.03
2019-04-04T04:30:19.223Z,97664.91
2019-04-04T04:32:47.682Z,97665.72
2019-04-04T04:35:15.920Z,97652.18
2019-04-04T04:37:44.367Z,97642.10
2019-04-04T04:40:15.119Z,97638.77
2019-04-04T04:42:43.075Z,97626.87
2019-04-04T04:45:12.509Z,97608.31
2019-04-04T04:47:40.799Z,97602.92
2019-04-04T04:50:10.000Z,97612.23
2019-04-04T04:52:38.537Z,97607.08
2019-04-04T04:55:07.153Z,97619.44
2019-04-04T04:57:37.131Z,97630.94
2019-04-04T05:00:06.077Z,97631.39
2019-04-04T05:02:34.318Z,97639.10
2019-04-04T05:05:02.540Z,97631.03
2019-04-04T05:07:30.756Z,97630.25
2019-04-04T05:09:58.989Z,97638.78
2019-04-04T05:12:27.447Z,97641.29
2019-04-04T05:14:55.687Z,97640.02
2019-04-04T05:17:23.925Z,97636.68
2019-04-04T05:19:52.427Z,97641.84
2019-04-04T05:22:20.905Z,97640.52
2019-04-04T05:25:07.068Z,97621.99
2019-04-04T05:27:19.321Z,97620.48
2019-04-04T05:29:47.784Z,97619.67
2019-04-04T05:32:16.274Z,97624.86
2019-04-04T05:34:44.500Z,97615.92
2019-04-04T05:37:12.728Z,97616.74
2019-04-04T05:39:40.963Z,97630.25
2019-04-04T05:42:09.188Z,97635.31
2019-04-04T05:44:37.487Z,97633.13
2019-04-04T05:47:05.706Z,97637.95
2019-04-04T05:49:33.967Z,97641.39
2019-04-04T05:52:02.512Z,97643.44
2019-04-04T05:54:30.974Z,97640.94
2019-04-04T05:56:59.200Z,97632.86
2019-04-04T05:59:27.648Z,97632.53
2019-04-04T06:01:56.097Z,97620.30
2019-04-04T06:04:25.929Z,97619.88
2019-04-04T06:06:55.807Z,97624.13
2019-04-04T06:09:24.091Z,97624.99
2019-04-04T06:11:53.155Z,97635.22
2019-04-04T06:14:21.954Z,97627.59
2019-04-04T06:16:50.486Z,97632.38
2019-04-04T06:19:18.967Z,97637.17
2019-04-04T06:21:49.631Z,97640.19
2019-04-04T06:24:17.153Z,97637.26
2019-04-04T06:26:45.375Z,97644.56
2019-04-04T06:29:15.169Z,97641.63
2019-04-04T06:31:43.560Z,97633.63
2019-04-04T06:34:11.795Z,97634.88
2019-04-04T06:36:40.023Z,97624.60
2019-04-04T06:39:08.309Z,97622.00
2019-04-04T06:41:36.918Z,97617.63
2019-04-04T06:44:05.432Z,97614.63
2019-04-04T06:46:33.896Z,97618.45
2019-04-04T06:49:04.383Z,97621.47
2019-04-04T06:51:32.077Z,97618.05
2019-04-04T06:54:00.319Z,97626.25
2019-04-04T06:56:31.802Z,97616.89
2019-04-04T06:58:59.924Z,97632.73
2019-04-04T07:01:28.383Z,97632.31
2019-04-04T07:03:59.095Z,97638.30
2019-04-04T07:06:26.798Z,97608.55
2019-04-04T07:08:55.246Z,97622.30
2019-04-04T07:11:23.707Z,97618.47
2019-04-04T07:13:52.157Z,97621.44
2019-04-04T07:16:20.617Z,97629.94
2019-04-04T07:18:48.837Z,97628.16
2019-04-04T07:21:19.828Z,97625.23
2019-04-04T07:23:47.022Z,97617.10
2019-04-04T07:26:15.256Z,97615.78
2019-04-04T07:28:43.700Z,97608.56
2019-04-04T07:31:12.160Z,97614.09
2019-04-04T07:33:42.665Z,97611.91
2019-04-04T07:36:10.352Z,97614.51
2019-04-04T07:38:38.812Z,97613.35
2019-04-04T07:41:08.296Z,97621.93
2019-04-04T07:43:39.402Z,97628.86
2019-04-04T07:46:16.460Z,97630.68
2019-04-04T07:48:37.592Z,97634.97
2019-04-04T07:51:05.818Z,97638.84
2019-04-04T07:53:36.412Z,97638.48
2019-04-04T07:56:04.445Z,97634.59
2019-04-04T07:58:32.897Z,97627.83
2019-04-04T08:01:01.116Z,97631.70
2019-04-04T08:03:29.352Z,97620.66
2019-04-04T08:05:57.579Z,97630.88
2019-04-04T08:08:26.039Z,97637.36
2019-04-04T08:10:54.259Z,97642.06
2019-04-04T08:13:22.730Z,97648.92
2019-04-04T08:15:51.180Z,97644.98
2019-04-04T08:18:19.646Z,97642.44
2019-04-04T08:20:47.936Z,97636.41
2019-04-04T08:23:16.164Z,97635.50
2019-04-04T08:25:44.616Z,97637.53
2019-04-04T08:28:12.852Z,97626.52
2019-04-04T08:30:41.096Z,97624.41
2019-04-04T08:33:09.480Z,97623.05
2019-04-04T08:35:37.706Z,97617.85
2019-04-04T08:38:06.179Z,97610.55
2019-04-04T08:40:34.410Z,97605.88
2019-04-04T08:43:02.876Z,97611.82
2019-04-04T08:45:31.104Z,97601.55
2019-04-04T08:47:59.333Z,97596.81
2019-04-04T08:50:27.783Z,97600.94
2019-04-04T08:52:56.246Z,97597.06
2019-04-04T08:55:24.475Z,97594.83
2019-04-04T08:57:52.709Z,97587.57
2019-04-04T09:00:20.940Z,97596.56
2019-04-04T09:02:49.393Z,97600.89
2019-04-04T09:05:17.622Z,97604.77
2019-04-04T09:07:45.842Z,97600.56
2019-04-04T09:10:15.880Z,97597.52
2019-04-04T09:12:44.103Z,97596.16
2019-04-04T09:15:12.687Z,97610.22
2019-04-04T09:17:40.913Z,97623.86
2019-04-04T09:20:09.901Z,97624.77
2019-04-04T09:22:40.903Z,97626.84
2019-04-04T09:25:10.442Z,97616.66
2019-04-04T09:27:38.611Z,97624.81
2019-04-04T09:30:07.881Z,97613.31
2019-04-04T09:32:36.176Z,97613.77
2019-04-04T09:35:06.840Z,97604.23
2019-04-04T09:37:35.065Z,97601.02
2019-04-04T09:40:04.342Z,97607.41
2019-04-04T09:42:32.560Z,97606.22
2019-04-04T09:45:00.796Z,97618.17
2019-04-04T09:47:29.035Z,97616.11
2019-04-04T09:49:57.274Z,97613.60
2019-04-04T09:52:25.721Z,97596.52
2019-04-04T09:54:54.189Z,97595.57
2019-04-04T09:57:22.409Z,97581.88
2019-04-04T09:59:50.651Z,97564.35
2019-04-04T10:02:18.881Z,97561.50
2019-04-04T10:04:47.338Z,97567.11
2019-04-04T10:07:15.859Z,97565.83
2019-04-04T10:09:44.096Z,97584.23
2019-04-04T10:12:12.323Z,97578.66
2019-04-04T10:14:40.559Z,97567.48
2019-04-04T10:17:08.783Z,97574.20
2019-04-04T10:19:37.238Z,97579.98
2019-04-04T10:22:05.465Z,97585.64
2019-04-04T10:24:33.919Z,97580.56
2019-04-04T10:27:02.154Z,97580.68
2019-04-04T10:29:30.600Z,97591.41
2019-04-04T10:31:59.065Z,97611.05
2019-04-04T10:34:28.471Z,97621.36
2019-04-04T10:36:56.737Z,97620.20
2019-04-04T10:39:29.052Z,97621.52
2019-04-04T10:41:55.153Z,97626.59
2019-04-04T10:44:23.379Z,97637.90
2019-04-04T10:46:51.843Z,97641.11
2019-04-04T10:49:20.289Z,97643.75
2019-04-04T10:51:48.908Z,97635.75
2019-04-04T10:54:17.187Z,97635.38
2019-04-04T10:56:45.633Z,97628.08
2019-04-04T10:59:13.856Z,97635.50
2019-04-04T11:01:42.095Z,97633.02
2019-04-04T11:04:10.545Z,97639.42
2019-04-04T11:06:38.790Z,97635.50
2019-04-04T11:09:07.853Z,97646.87
2019-04-04T11:11:36.310Z,97650.30
2019-04-04T11:14:04.603Z,97640.94
2019-04-04T11:16:33.077Z,97625.60
2019-04-04T11:19:01.304Z,97615.41
2019-04-04T11:21:29.768Z,97627.00
2019-04-04T11:23:57.996Z,97629.60
2019-04-04T11:26:26.491Z,97630.84
2019-04-04T11:28:54.799Z,97633.85
2019-04-04T11:31:23.027Z,97619.78
2019-04-04T11:33:51.258Z,97614.67
2019-04-04T11:36:19.482Z,97619.83
2019-04-04T11:38:47.720Z,97615.53
2019-04-04T11:41:15.952Z,97626.22
2019-04-04T11:43:44.191Z,97627.58
2019-04-04T11:46:12.417Z,97636.57
2019-04-04T11:48:40.652Z,97633.60
2019-04-04T11:51:08.983Z,97628.86
2019-04-04T11:53:37.455Z,97617.84
2019-04-04T11:56:05.676Z,97620.41
2019-04-04T11:58:33.911Z,97613.15
2019-04-04T12:01:04.123Z,97624.61
2019-04-04T12:03:32.601Z,97632.94
2019-04-04T12:06:00.901Z,97632.66
2019-04-04T12:08:29.464Z,97625.31
2019-04-04T12:10:57.689Z,97616.81
2019-04-04T12:13:26.222Z,97623.17
2019-04-04T12:15:54.463Z,97632.66
2019-04-04T12:18:22.699Z,97651.52
2019-04-04T12:20:50.938Z,97653.25
2019-04-04T12:23:19.457Z,97655.02
2019-04-04T12:25:47.685Z,97642.60
2019-04-04T12:28:15.932Z,97648.17
2019-04-04T12:30:44.158Z,97634.47
2019-04-04T12:33:12.394Z,97645.07
2019-04-04T12:35:40.626Z,97656.58
2019-04-04T12:38:09.119Z,97657.41
2019-04-04T12:40:37.692Z,97665.48
2019-04-04T12:43:06.163Z,97672.79
2019-04-04T12:45:34.388Z,97682.16
2019-04-04T12:48:02.852Z,97692.02
2019-04-04T12:50:31.085Z,97703.53
2019-04-04T12:52:59.316Z,97711.25
2019-04-04T12:55:27.564Z,97704.48
2019-04-04T12:57:55.788Z,97688.73
2019-04-04T13:00:24.029Z,97672.92
2019-04-04T13:02:52.494Z,97685.75
2019-04-04T13:05:20.726Z,97687.45
2019-04-04T13:07:48.957Z,97680.23
2019-04-04T13:10:17.337Z,97694.30
2019-04-04T13:12:45.569Z,97689.59
2019-04-04T13:15:13.878Z,97711.29
2019-04-04T13:17:42.101Z,97723.25
2019-04-04T13:20:10.616Z,97711.38
2019-04-04T13:22:39.139Z,97716.08
2019-04-04T13:25:08.255Z,97713.02
2019-04-04T13:27:36.714Z,97714.58
2019-04-04T13:30:12.767Z,97719.69
2019-04-04T13:32:41.001Z,97726.86
2019-04-04T13:35:09.306Z,97723.44
2019-04-04T13:37:37.767Z,97725.95
2019-04-04T13:40:06.584Z,97720.43
2019-04-04T13:42:35.044Z,97722.53
2019-04-04T13:45:04.094Z,97742.12
2019-04-04T13:47:32.335Z,97733.09
2019-04-04T13:50:00.785Z,97725.33
2019-04-04T13:52:29.021Z,97722.26
2019-04-04T13:54:57.262Z,97720.17
2019-04-04T13:57:25.733Z,97716.74
2019-04-04T13:59:53.964Z,97717.59
2019-04-04T14:02:22.274Z,97737.97
2019-04-04T14:04:50.733Z,97755.00
2019-04-04T14:07:19.200Z,97745.05
2019-04-04T14:09:47.659Z,97748.79
2019-04-04T14:12:15.892Z,97757.38
2019-04-04T14:14:44.347Z,97753.45
2019-04-04T14:17:12.592Z,97770.46
2019-04-04T14:19:40.822Z,97762.29
2019-04-04T14:22:09.285Z,97764.02
2019-04-04T14:24:37.523Z,97794.29
2019-04-04T14:27:05.822Z,97794.77
2019-04-04T14:29:34.239Z,97801.55
2019-04-04T14:32:02.719Z,97796.08
2019-04-04T14:34:31.198Z,97801.80
2019-04-04T14:36:59.445Z,97793.80
2019-04-04T14:39:27.916Z,97796.02
2019-04-04T14:41:56.147Z,97794.87
2019-04-04T14:44:24.612Z,97789.94
2019-04-04T14:46:53.073Z,97778.16
2019-04-04T14:49:21.322Z,97775.36
2019-04-04T14:51:49.545Z,97778.47
2019-04-04T14:54:18.014Z,97753.75
2019-04-04T14:56:46.318Z,97752.57
2019-04-04T14:59:14.550Z,97758.97
2019-04-04T15:01:43.005Z,97744.07
2019-04-04T15:04:11.233Z,97746.22
2019-04-04T15:06:39.463Z,97755.21
2019-04-04T15:09:09.506Z,97742.44
2019-04-04T15:11:37.736Z,97802.05
2019-04-04T15:14:05.973Z,97805.52
2019-04-04T15:16:34.454Z,97811.05
2019-04-04T15:19:02.735Z,97812.19
2019-04-04T15:21:30.966Z,97816.53
2019-04-04T15:23:59.199Z,97814.75
2019-04-04T15:26:27.653Z,97816.47
2019-04-04T15:28:55.902Z,97822.92
2019-04-04T15:31:24.126Z,97809.63
2019-04-04T15:33:52.361Z,97797.89
2019-04-04T15:36:20.816Z,97799.75
2019-04-04T15:38:49.052Z,97798.02
2019-04-04T15:41:17.278Z,97808.66
2019-04-04T15:43:45.514Z,97830.05
2019-04-04T15:46:13.744Z,97840.23
2019-04-04T15:48:42.215Z,97859.37
2019-04-04T15:51:10.506Z,97855.58
2019-04-04T15:53:38.731Z,97852.66
2019-04-04T15:56:06.963Z,97845.84
2019-04-04T15:58:35.440Z,97856.12
2019-04-04T16:01:03.977Z,97864.16
2019-04-04T16:03:32.438Z,97872.30
2019-04-04T16:06:00.905Z,97874.45
2019-04-04T16:08:29.361Z,97887.25
2019-04-04T16:10:59.722Z,97883.81
2019-04-04T16:13:27.551Z,97894.52
2019-04-04T16:15:56.020Z,97898.77
2019-04-04T16:18:24.246Z,97899.31
2019-04-04T16:20:52.732Z,97898.91
2019-04-04T16:23:21.279Z,97885.70
2019-04-04T16:25:49.512Z,97884.01
2019-04-04T16:28:18.041Z,97882.77
2019-04-04T16:30:46.271Z,97886.98
2019-04-04T16:33:14.733Z,97892.77
2019-04-04T16:35:42.970Z,97901.31
2019-04-04T16:38:11.196Z,97901.72
2019-04-04T16:40:39.675Z,97899.02
2019-04-04T16:43:07.911Z,97908.29
2019-04-04T16:45:36.151Z,97908.34
2019-04-04T16:48:04.660Z,97908.75
2019-04-04T16:50:32.900Z,97904.81
2019-04-04T16:53:01.118Z,97904.77
2019-04-04T16:55:29.362Z,97902.63
2019-04-04T16:57:57.586Z,97904.31
2019-04-04T17:00:26.161Z,97911.52
2019-04-04T17:02:54.611Z,97919.66
2019-04-04T17:05:23.067Z,97931.67
2019-04-04T17:07:51.298Z,97925.94
2019-04-04T17:10:19.809Z,97911.88
2019-04-04T17:12:48.048Z,97916.02
2019-04-04T17:15:16.586Z,97924.42
2019-04-04T17:17:44.823Z,97928.56
2019-04-04T17:20:13.537Z,97933.25
2019-04-04T17:22:41.765Z,97928.14
2019-04-04T17:25:10.773Z,97926.77
2019-04-04T17:27:39.242Z,97915.98
2019-04-04T17:30:08.331Z,97923.19
2019-04-04T17:32:36.616Z,97927.70
2019-04-04T17:35:06.679Z,97934.02
2019-04-04T17:37:35.146Z,97936.53
2019-04-04T17:40:04.938Z,97944.96
2019-04-04T17:42:33.724Z,97943.17
2019-04-04T17:45:02.590Z,97953.30
2019-04-04T17:47:31.729Z,97963.40
2019-04-04T17:50:00.036Z,97977.41
2019-04-04T17:52:28.780Z,97990.08
2019-04-04T17:54:57.111Z,97994.67
2019-04-04T17:57:25.706Z,98001.42
2019-04-04T17:59:53.888Z,98003.56
2019-04-04T18:02:22.422Z,97997.59
2019-04-04T18:04:50.888Z,97992.48
2019-04-04T18:07:19.120Z,97989.81
2019-04-04T18:09:47.348Z,97993.70
2019-04-04T18:12:16.976Z,98007.34
2019-04-04T18:14:45.614Z,98009.09
2019-04-04T18:17:13.849Z,98017.27
2019-04-04T18:19:42.375Z,98017.38
2019-04-04T18:22:10.617Z,98025.15
2019-04-04T18:24:39.056Z,98018.38
2019-04-04T18:27:07.308Z,98020.98
2019-04-04T18:29:35.535Z,98022.59
2019-04-04T18:32:03.980Z,98020.47
2019-04-04T18:34:32.665Z,98023.89
2019-04-04T18:37:01.372Z,98023.88
2019-04-04T18:39:29.851Z,98034.39
2019-04-04T18:41:58.293Z,98033.58
2019-04-04T18:44:26.530Z,98032.66
2019-04-04T18:46:55.010Z,98039.05
2019-04-04T18:49:23.238Z,98040.73
2019-04-04T18:51:51.457Z,98045.38
2019-04-04T18:54:19.694Z,98057.70
2019-04-04T18:56:47.909Z,98064.49
2019-04-04T18:59:16.361Z,98057.70
2019-04-04T19:01:44.822Z,98061.06
2019-04-04T19:04:13.059Z,98070.83
2019-04-04T19:06:41.283Z,98076.80
2019-04-04T19:09:15.027Z,98072.11
2019-04-04T19:11:41.704Z,98075.17
2019-04-04T19:14:10.094Z,98083.77
2019-04-04T19:16:38.234Z,98066.80
2019-04-04T19:19:06.691Z,98063.97
2019-04-04T19:21:35.147Z,98072.20
2019-04-04T19:24:03.375Z,98076.39
2019-04-04T19:26:31.671Z,98087.03
2019-04-04T19:28:59.979Z,98082.73
2019-04-04T19:31:28.510Z,98091.55
2019-04-04T19:33:56.976Z,98088.64
2019-04-04T19:36:25.198Z,98084.34
2019-04-04T19:38:53.439Z,98087.25
2019-04-04T19:41:21.672Z,98094.86
2019-04-04T19:43:49.889Z,98102.42
2019-04-04T19:46:18.117Z,98099.80
2019-04-04T19:48:48.309Z,98107.83
2019-04-04T19:51:16.518Z,98103.12
2019-04-04T19:53:44.977Z,98103.98
2019-04-04T19:56:13.217Z,98107.88
2019-04-04T19:58:41.663Z,98126.53
2019-04-04T20:01:10.214Z,98110.79
2019-04-04T20:03:38.656Z,98117.64
2019-04-04T20:06:06.884Z,98127.80
2019-04-04T20:08:35.330Z,98133.44
2019-04-04T20:11:03.564Z,98133.03
2019-04-04T20:13:31.783Z,98131.23
2019-04-04T20:16:00.011Z,98129.14
2019-04-04T20:18:28.464Z,98130.83
2019-04-04T20:20:56.699Z,98133.78
2019-04-04T20:23:24.927Z,98134.95
2019-04-04T20:25:53.387Z,98140.85
2019-04-04T20:28:21.616Z,98148.98
2019-04-04T20:30:49.842Z,98148.92
2019-04-04T20:33:18.066Z,98146.72
2019-04-04T20:35:46.666Z,98153.11
2019-04-04T20:38:14.891Z,98158.63
2019-04-04T20:40:43.345Z,98160.36
2019-04-04T20:43:11.796Z,98160.71
2019-04-04T20:45:40.105Z,98154.79
2019-04-04T20:48:08.707Z,98172.62
2019-04-04T20:50:36.932Z,98163.67
2019-04-04T20:53:05.828Z,98156.36
2019-04-04T20:55:34.056Z,98165.24
2019-04-04T20:58:02.286Z,98171.92
2019-04-04T21:00:30.740Z,98158.19
2019-04-04T21:02:58.967Z,98146.05
2019-04-04T21:05:27.203Z,98149.70
2019-04-04T21:07:55.425Z,98144.75
2019-04-04T21:10:23.886Z,98144.27
2019-04-04T21:12:52.341Z,98149.44
2019-04-04T21:15:20.570Z,98144.96
2019-04-04T21:17:49.025Z,98144.03
2019-04-04T21:20:17.489Z,98144.84
2019-04-04T21:22:45.714Z,98146.92
2019-04-04T21:25:14.089Z,98153.78
2019-04-04T21:27:42.318Z,98142.23
2019-04-04T21:30:11.117Z,98150.29
2019-04-04T21:32:39.350Z,98145.12
2019-04-04T21:35:07.657Z,98147.27
2019-04-04T21:37:35.885Z,98154.47
2019-04-04T21:40:04.756Z,98152.38
2019-04-04T21:42:33.280Z,98157.80
2019-04-04T21:45:01.740Z,98156.20
2019-04-04T21:47:30.192Z,98155.45
2019-04-04T21:49:58.438Z,98157.42
2019-04-04T21:52:26.669Z,98151.45
2019-04-04T21:54:54.905Z,98156.93
2019-04-04T21:57:23.125Z,98149.62
2019-04-04T21:59:51.580Z,98154.19
2019-04-04T22:02:19.877Z,98160.98
2019-04-04T22:04:48.096Z,98163.94
2019-04-04T22:07:16.556Z,98171.19
2019-04-04T22:09:45.002Z,98185.57
2019-04-04T22:12:13.467Z,98190.55
2019-04-04T22:14:41.690Z,98191.42
2019-04-04T22:17:09.927Z,98199.14
2019-04-04T22:19:38.145Z,98200.23
2019-04-04T22:22:06.382Z,98202.50
2019-04-04T22:24:34.610Z,98204.25
2019-04-04T22:27:02.849Z,98191.95
2019-04-04T22:29:31.303Z,98193.76
2019-04-04T22:31:59.540Z,98201.76
2019-04-04T22:34:27.767Z,98199.27
2019-04-04T22:36:56.228Z,98194.63
2019-04-04T22:39:24.454Z,98186.09
2019-04-04T22:41:52.683Z,98175.89
2019-04-04T22:44:33.789Z,98173.74
2019-04-04T22:46:50.858Z,98168.58
2019-04-04T22:49:19.379Z,98181.62
2019-04-04T22:51:47.913Z,98171.69
2019-04-04T22:54:16.143Z,98178.94
2019-04-04T22:56:44.613Z,98183.61
2019-04-04T22:59:12.840Z,98180.19
2019-04-04T23:01:41.299Z,98181.87
2019-04-04T23:04:09.752Z,98181.16
2019-04-04T23:06:38.218Z,98188.88
2019-04-04T23:09:07.701Z,98187.25
2019-04-04T23:11:35.939Z,98205.98
2019-04-04T23:14:04.402Z,98194.66
2019-04-04T23:16:32.659Z,98212.97
2019-04-04T23:19:01.116Z,98210.54
2019-04-04T23:21:29.555Z,98211.00
2019-04-04T23:23:57.795Z,98207.80
2019-04-04T23:26:26.247Z,98212.50
2019-04-04T23:28:54.482Z,98218.19
2019-04-04T23:31:22.935Z,98222.15
2019-04-04T23:33:51.403Z,98223.92
2019-04-04T23:36:19.626Z,98238.09
2019-04-04T23:38:47.864Z,98239.36
2019-04-04T23:41:16.086Z,98236.12
2019-04-04T23:43:44.550Z,98246.91
2019-04-04T23:46:13.010Z,98251.27
2019-04-04T23:48:41.466Z,98254.63
2019-04-04T23:51:09.946Z,98255.16
2019-04-04T23:53:38.427Z,98259.02
2019-04-04T23:56:06.919Z,98259.33
2019-04-04T23:58:35.111Z,98261.76
